Ana Sayfa
METAR-TAF:

METAR-TAF

Havaalanları :

Kuveyt, Kuveyt

Enlem: 29-13N, Boylam: 047-59E, yükseklik: 55 m

Güncel hava durumu gözlemi

Rapor saat 00:00 UTC de 30 dakika önce yapıldı.
Rüzgar batıdan 5 kt
Sıcaklık 27°C
Nem 18%
Basınç 1000 hPa
Görüş mesafesi: 5000 m
Açık gökyüzü
(Hafif) Toz Pusu

METAR: OKBK 180000Z 26005KT 5000 -HZ SKC 27/01 Q1000 NOSIG

Saat: 03:30 (00:30 UTC)

Tahmin

Rapor saat 22:45 UTC de 1 saat ve 45 dakika önce yapıldı.
Ayın 18'si saat 00 UTC'den ayın 19'si saat 06 UTC'ye kadar geçerli Tahmin
Rüzgar batı/kuzeybatıdan 10 kt
Görüş mesafesi: 8000 m
Açık gökyüzü
Geçici
ayın 18'si saat 00 UTC'den ayın 18'si saat 12 UTC'ye kadar
Rüzgar değişken yönden 3 kt

TAF: OKBK 172245Z 1800/1906 30010KT 8000 SKC TEMPO 1800/1812 VRB03KT

4.000'den fazla havaalanı için hava durumu gözlemleri ve tahminleri (METAR ve TAF raporları).

Kullanılabilir istasyonlar harita üzerinde sarı ve kırmızı noktalarla gösterilir.

İstasyonun adını görmek için fareyi noktanın üzerinde gezdirin.

Sonrasında hava gözlem ve tahminlerini görmek için tıklayın.

Haritayı değiştirmek için: yaklaştırmak için siyah artı işaretli yeşil düğmeye ve uzaklaştırmak için de eksi işaretli düğmeye hızla tıklayın; bitişik haritalar için yeşil okları kullanın.


METAR-TAF: